Terminal Aerodrome Forecast
Issued by NWS

Home | Current Version | Previous Version | Text Only | Print | Product List | Glossary On
Versions: 1 2 3 4 5 6 7 8 9 10 11 12 13 14 15
586
FTUS45 KRIW 192326
TAFBPI
TAF
KBPI 192326Z 2000/2024 36006KT P6SM -SN OVC035
      TEMPO 2000/2003 2SM -SN BKN016
     FM200300 35007KT 3SM -SN OVC024
     FM201600 36008KT 2SM -SN OVC018=

USA.gov is the U.S. government's official web portal to all federal, state and local government web resources and services.